Highclere, United Kingdom
Current Conditions -  °F | °C
As of 3:50 AM on Friday 31 Oct 2014 (Local Time) from EGVP Reporting Station
Scattered Clouds Scattered Clouds  
Wind Chill: 57°   Ceiling: Unl
Heat Index: 57°   Visibility: 1.7mi
Dew Point: 57°   Wind: 9mph
Humidity: 100%   Direction: 170°S
Pressure: 30.03"   Gusts: NA
Location:  51.34°N, 1.38°W
Report Text: EGVP 310350Z AUTO 17008KT 2800 // SCT004/// 14/14 Q1017
Loading
Personal Weather Stations






























Interactive Weather Map
Tropical Storm Tracking
New forecast layout! Learn more

10-Day Weather Forecast

Advertisements
Track Severe Weather on mobile